Аэропорт: Брест-2. Брест

ICAO: UMBB

METAR:
2019-12-12 11:30:00
UMBB 121130Z 15003MPS 4600 BR NSC 04/M01 Q1009 R11/510145 NOSIG
METAR:
2019-12-12 08:00:00
TAF UMBB 120800Z 1209/1218 17005G10MPS 5000 BR BKN010 SCT015CB TEMPO 1209/1215 2100 -SHRASN BR BKN007